createdAt,value
2022-11-09T00:00:56.519Z,56.28
2022-11-09T00:03:23.419Z,53.90
2022-11-09T00:06:00.756Z,53.28
2022-11-09T00:08:28.545Z,53.65
2022-11-09T00:10:55.615Z,56.63
2022-11-09T00:13:23.167Z,56.53
2022-11-09T00:15:50.453Z,54.35
2022-11-09T00:18:17.424Z,54.50
2022-11-09T00:20:47.687Z,53.13
2022-11-09T00:23:18.592Z,54.35
2022-11-09T00:25:45.760Z,52.88
2022-11-09T00:28:12.837Z,54.97
2022-11-09T00:30:40.696Z,51.42
2022-11-09T00:33:08.993Z,53.20
2022-11-09T00:35:38.794Z,52.95
2022-11-09T00:38:05.919Z,53.40
2022-11-09T00:40:32.858Z,53.25
2022-11-09T00:42:59.737Z,53.03
2022-11-09T00:45:26.645Z,54.83
2022-11-09T00:47:53.551Z,51.70
2022-11-09T00:50:20.467Z,51.47
2022-11-09T00:52:48.746Z,51.55
2022-11-09T00:55:15.829Z,54.97
2022-11-09T00:57:42.902Z,52.55
2022-11-09T01:00:10.710Z,52.17
2022-11-09T01:02:37.648Z,53.75
2022-11-09T01:05:05.057Z,55.45
2022-11-09T01:07:32.093Z,51.90
2022-11-09T01:09:58.998Z,53.22
2022-11-09T01:12:25.886Z,53.20
2022-11-09T01:14:52.953Z,52.05
2022-11-09T01:17:19.911Z,50.03
2022-11-09T01:19:47.586Z,51.33
2022-11-09T01:22:15.127Z,50.45
2022-11-09T01:24:42.271Z,50.08
2022-11-09T01:27:09.438Z,48.92
2022-11-09T01:29:36.693Z,49.42
2022-11-09T01:32:04.426Z,51.28
2022-11-09T01:34:32.457Z,51.78
2022-11-09T01:37:02.336Z,51.65
2022-11-09T01:39:30.346Z,51.95
2022-11-09T01:41:57.486Z,50.63
2022-11-09T01:44:27.975Z,49.10
2022-11-09T01:46:59.950Z,49.15
2022-11-09T01:49:48.052Z,48.40
2022-11-09T01:52:36.564Z,47.08
2022-11-09T01:55:24.549Z,48.05
2022-11-09T01:57:56.649Z,49.58
2022-11-09T02:00:23.957Z,47.33
2022-11-09T02:03:00.929Z,49.58
2022-11-09T02:05:31.195Z,50.10
2022-11-09T02:08:02.068Z,49.05
2022-11-09T02:10:34.148Z,48.95
2022-11-09T02:13:02.934Z,49.83
2022-11-09T02:15:39.146Z,48.47
2022-11-09T02:18:11.533Z,49.58
2022-11-09T02:20:51.282Z,49.65
2022-11-09T02:23:19.629Z,48.63
2022-11-09T02:25:53.044Z,49.15
2022-11-09T02:28:20.981Z,48.88
2022-11-09T02:30:53.844Z,48.22
2022-11-09T02:33:21.793Z,46.88
2022-11-09T02:35:49.100Z,48.10
2022-11-09T02:38:16.395Z,48.47
2022-11-09T02:40:48.275Z,50.50
2022-11-09T02:43:18.786Z,51.90
2022-11-09T02:45:46.163Z,47.97
2022-11-09T02:48:13.243Z,48.90
2022-11-09T02:50:40.645Z,49.35
2022-11-09T02:53:07.625Z,48.85
2022-11-09T02:55:37.969Z,48.42
2022-11-09T02:58:06.558Z,49.15
2022-11-09T03:00:35.160Z,47.88
2022-11-09T03:03:03.839Z,48.80
2022-11-09T03:05:30.959Z,48.30
2022-11-09T03:08:02.657Z,48.70
2022-11-09T03:10:32.912Z,46.97
2022-11-09T03:13:00.911Z,45.63
2022-11-09T03:15:27.900Z,48.47
2022-11-09T03:17:54.911Z,47.80
2022-11-09T03:20:22.442Z,47.67
2022-11-09T03:22:49.502Z,51.30
2022-11-09T03:25:17.144Z,47.80
2022-11-09T03:27:44.102Z,48.65
2022-11-09T03:30:12.838Z,47.17
2022-11-09T03:32:40.446Z,47.85
2022-11-09T03:35:08.465Z,47.20
2022-11-09T03:37:35.813Z,47.58
2022-11-09T03:40:04.138Z,47.90
2022-11-09T03:42:31.037Z,48.53
2022-11-09T03:44:58.048Z,49.58
2022-11-09T03:47:24.971Z,48.15
2022-11-09T03:49:51.881Z,48.13
2022-11-09T03:52:18.831Z,48.35
2022-11-09T03:54:45.769Z,46.95
2022-11-09T03:57:12.720Z,48.45
2022-11-09T03:59:39.662Z,48.63
2022-11-09T04:02:06.652Z,49.45
2022-11-09T04:04:33.666Z,48.85
2022-11-09T04:07:00.740Z,47.67
2022-11-09T04:09:27.780Z,48.78
2022-11-09T04:11:54.783Z,49.22
2022-11-09T04:14:21.751Z,48.75
2022-11-09T04:16:48.741Z,49.25
2022-11-09T04:19:15.727Z,49.38
2022-11-09T04:21:42.604Z,48.08
2022-11-09T04:24:12.033Z,47.70
2022-11-09T04:26:39.043Z,47.00
2022-11-09T04:29:05.952Z,48.42
2022-11-09T04:31:32.854Z,48.97
2022-11-09T04:33:59.922Z,50.08
2022-11-09T04:36:26.925Z,49.55
2022-11-09T04:38:53.971Z,50.13
2022-11-09T04:41:21.001Z,49.53
2022-11-09T04:43:48.286Z,49.03
2022-11-09T04:46:15.205Z,47.92
2022-11-09T04:48:42.271Z,47.55
2022-11-09T04:51:13.685Z,47.88
2022-11-09T04:53:41.379Z,48.78
2022-11-09T04:56:08.650Z,47.20
2022-11-09T04:58:35.711Z,49.25
2022-11-09T05:01:10.506Z,46.08
2022-11-09T05:03:37.927Z,47.92
2022-11-09T05:06:25.725Z,44.85
2022-11-09T05:08:53.837Z,45.85
2022-11-09T05:11:21.215Z,44.05
2022-11-09T05:13:48.871Z,44.63
2022-11-09T05:16:17.802Z,42.72
2022-11-09T05:18:44.825Z,43.22
2022-11-09T05:21:12.440Z,43.03
2022-11-09T05:23:58.043Z,42.95
2022-11-09T05:26:39.682Z,41.25
2022-11-09T05:29:12.317Z,39.75
2022-11-09T05:31:40.755Z,41.43
2022-11-09T05:34:08.296Z,39.85
2022-11-09T05:36:35.411Z,39.08
2022-11-09T05:39:02.342Z,40.08
2022-11-09T05:41:29.401Z,37.60
2022-11-09T05:43:56.379Z,35.95
2022-11-09T05:46:23.412Z,36.90
2022-11-09T05:48:50.365Z,35.13
2022-11-09T05:51:17.461Z,36.33
2022-11-09T05:53:46.691Z,37.13
2022-11-09T05:56:15.207Z,36.22
2022-11-09T05:58:42.587Z,35.03
2022-11-09T06:01:12.050Z,35.08
2022-11-09T06:03:39.251Z,36.25
2022-11-09T06:06:09.090Z,36.70
2022-11-09T06:08:37.927Z,34.30
2022-11-09T06:11:07.116Z,33.28
2022-11-09T06:13:34.654Z,34.33
2022-11-09T06:16:03.834Z,35.67
2022-11-09T06:18:32.689Z,34.67
2022-11-09T06:21:01.951Z,33.90
2022-11-09T06:23:30.477Z,32.55
2022-11-09T06:26:10.043Z,31.15
2022-11-09T06:28:41.376Z,31.92
2022-11-09T06:31:12.932Z,30.88
2022-11-09T06:33:40.044Z,32.00
2022-11-09T06:36:07.478Z,29.52
2022-11-09T06:38:34.538Z,30.80
2022-11-09T06:41:01.849Z,28.27
2022-11-09T06:43:29.134Z,27.90
2022-11-09T06:45:56.514Z,29.80
2022-11-09T06:48:24.569Z,28.80
2022-11-09T06:50:51.649Z,27.88
2022-11-09T06:53:19.272Z,27.80
2022-11-09T06:55:50.595Z,26.60
2022-11-09T06:58:19.841Z,26.73
2022-11-09T07:00:47.551Z,26.02
2022-11-09T07:03:16.358Z,24.48
2022-11-09T07:05:43.979Z,24.63
2022-11-09T07:08:11.612Z,25.02
2022-11-09T07:10:39.170Z,24.20
2022-11-09T07:13:06.936Z,23.63
2022-11-09T07:15:34.884Z,22.30
2022-11-09T07:18:03.372Z,22.67
2022-11-09T07:20:30.609Z,19.60
2022-11-09T07:22:57.721Z,19.85
2022-11-09T07:25:25.441Z,19.23
2022-11-09T07:27:52.459Z,17.98
2022-11-09T07:30:19.796Z,18.30
2022-11-09T07:33:08.074Z,19.25
2022-11-09T07:35:33.680Z,17.52
2022-11-09T07:38:02.230Z,17.80
2022-11-09T07:40:30.460Z,16.80
2022-11-09T07:43:01.487Z,17.05
2022-11-09T07:45:29.866Z,16.65
2022-11-09T07:47:59.082Z,15.05
2022-11-09T07:50:26.912Z,14.93
2022-11-09T07:52:59.257Z,14.88
2022-11-09T07:55:27.792Z,14.90
2022-11-09T07:58:04.678Z,13.88
2022-11-09T08:00:33.186Z,13.60
2022-11-09T08:03:00.253Z,13.52
2022-11-09T08:05:27.509Z,12.30
2022-11-09T08:07:59.019Z,12.38
2022-11-09T08:10:27.460Z,12.63
2022-11-09T08:12:55.878Z,10.90
2022-11-09T08:15:23.361Z,10.93
2022-11-09T08:17:50.513Z,10.43
2022-11-09T08:20:17.864Z,9.82
2022-11-09T08:22:46.173Z,9.65
2022-11-09T08:25:14.645Z,9.73
2022-11-09T08:27:41.832Z,10.13
2022-11-09T08:30:14.229Z,9.48
2022-11-09T08:32:42.912Z,9.15
2022-11-09T08:35:11.588Z,9.27
2022-11-09T08:37:38.855Z,9.48
2022-11-09T08:40:07.286Z,9.65
2022-11-09T08:42:34.272Z,9.65
2022-11-09T08:45:01.916Z,9.25
2022-11-09T08:47:29.386Z,9.02
2022-11-09T08:49:56.340Z,9.02
2022-11-09T08:52:23.399Z,8.15
2022-11-09T08:54:50.443Z,6.82
2022-11-09T08:57:20.915Z,6.25
2022-11-09T08:59:47.900Z,5.97
2022-11-09T09:02:15.590Z,5.93
2022-11-09T09:04:43.126Z,6.13
2022-11-09T09:07:11.051Z,5.25
2022-11-09T09:09:38.511Z,6.38
2022-11-09T09:12:07.192Z,5.72
2022-11-09T09:14:34.504Z,6.00
2022-11-09T09:17:01.809Z,5.97
2022-11-09T09:19:28.936Z,5.05
2022-11-09T09:21:56.063Z,5.80
2022-11-09T09:24:23.108Z,5.60
2022-11-09T09:26:50.131Z,5.05
2022-11-09T09:29:17.346Z,5.15
2022-11-09T09:31:44.451Z,5.05
2022-11-09T09:34:12.719Z,4.47
2022-11-09T09:36:44.722Z,5.47
2022-11-09T09:39:14.825Z,4.85
2022-11-09T09:41:50.326Z,4.90
2022-11-09T09:44:50.358Z,4.47
2022-11-09T09:47:25.203Z,4.82
2022-11-09T09:49:59.881Z,5.15
2022-11-09T09:53:04.714Z,5.45
2022-11-09T09:55:43.272Z,5.60
2022-11-09T09:58:19.577Z,5.50
2022-11-09T10:00:48.418Z,5.32
2022-11-09T10:03:20.133Z,5.85
2022-11-09T10:06:01.716Z,5.35
2022-11-09T10:09:11.065Z,4.82
2022-11-09T10:12:07.042Z,5.18
2022-11-09T10:15:00.961Z,5.70
2022-11-09T10:20:27.537Z,5.30
2022-11-09T10:23:03.730Z,4.35
2022-11-09T10:26:02.923Z,4.70
2022-11-09T10:28:42.394Z,4.97
2022-11-09T10:31:19.321Z,5.00
2022-11-09T10:33:52.823Z,5.15
2022-11-09T10:36:29.966Z,5.60
2022-11-09T10:39:00.533Z,5.03
2022-11-09T10:41:49.393Z,6.30
2022-11-09T10:44:34.678Z,5.30
2022-11-09T10:47:20.351Z,5.30
2022-11-09T10:50:18.155Z,5.10
2022-11-09T10:53:23.465Z,5.40
2022-11-09T10:56:20.925Z,5.07
2022-11-09T10:59:47.503Z,5.88
2022-11-09T11:02:45.081Z,5.40
2022-11-09T11:05:32.296Z,5.28
2022-11-09T11:08:41.160Z,5.50
2022-11-09T11:11:36.474Z,5.45
2022-11-09T11:14:33.378Z,5.20
2022-11-09T11:17:35.433Z,4.95
2022-11-09T11:20:31.344Z,5.30
2022-11-09T11:23:25.804Z,5.35
2022-11-09T11:26:23.400Z,5.45
2022-11-09T11:29:48.588Z,5.38
2022-11-09T11:32:34.777Z,5.00
2022-11-09T11:35:32.889Z,5.50
2022-11-09T11:38:33.613Z,5.22
2022-11-09T11:41:38.868Z,5.80
2022-11-09T11:45:18.486Z,5.47
2022-11-09T11:48:13.633Z,5.65
2022-11-09T11:51:11.256Z,5.18
2022-11-09T11:54:31.100Z,5.07
2022-11-09T11:57:25.534Z,5.75
2022-11-09T12:00:15.630Z,6.05
2022-11-09T12:03:17.012Z,6.43
2022-11-09T12:06:11.556Z,6.72
2022-11-09T12:09:14.784Z,6.60
2022-11-09T12:12:24.623Z,6.40
2022-11-09T12:15:28.585Z,6.90
2022-11-09T12:18:34.305Z,7.00
2022-11-09T12:21:44.404Z,8.00
2022-11-09T12:24:57.298Z,6.93
2022-11-09T12:28:06.564Z,7.03
2022-11-09T12:31:35.512Z,6.97
2022-11-09T12:34:31.230Z,8.15
2022-11-09T12:37:35.976Z,7.43
2022-11-09T12:40:31.817Z,6.93
2022-11-09T12:43:26.124Z,6.88
2022-11-09T12:46:14.800Z,6.82
2022-11-09T12:49:04.319Z,6.65
2022-11-09T12:51:52.353Z,6.38
2022-11-09T12:54:44.629Z,7.05
2022-11-09T12:57:31.113Z,7.55
2022-11-09T13:00:35.125Z,7.50
2022-11-09T13:03:27.191Z,8.27
2022-11-09T13:06:17.546Z,8.70
2022-11-09T13:09:15.783Z,9.75
2022-11-09T13:12:18.457Z,10.07
2022-11-09T13:15:36.909Z,8.80
2022-11-09T13:18:46.566Z,9.73
2022-11-09T13:21:34.286Z,9.10
2022-11-09T13:24:32.701Z,8.93
2022-11-09T13:27:48.115Z,8.52
2022-11-09T13:30:39.149Z,9.75
2022-11-09T13:33:29.387Z,9.90
2022-11-09T13:36:17.703Z,11.00
2022-11-09T13:39:33.157Z,10.07
2022-11-09T13:42:28.060Z,11.27
2022-11-09T13:45:36.702Z,11.27
2022-11-09T13:48:41.096Z,10.35
2022-11-09T13:54:30.832Z,11.45
2022-11-09T13:57:16.913Z,11.48
2022-11-09T14:00:05.781Z,10.90
2022-11-09T14:03:17.829Z,10.93
2022-11-09T14:06:03.754Z,11.13
2022-11-09T14:08:49.604Z,11.75
2022-11-09T14:11:47.408Z,11.95
2022-11-09T14:14:41.784Z,11.82
2022-11-09T14:17:50.284Z,11.82
2022-11-09T14:20:54.646Z,12.13
2022-11-09T14:23:40.087Z,12.35
2022-11-09T14:26:26.565Z,12.57
2022-11-09T14:29:22.328Z,12.95
2022-11-09T14:32:30.412Z,15.27
2022-11-09T14:35:33.626Z,13.45
2022-11-09T14:38:23.009Z,13.23
2022-11-09T14:41:21.101Z,14.32
2022-11-09T14:44:07.449Z,13.48
2022-11-09T14:46:55.383Z,13.18
2022-11-09T14:49:41.444Z,12.88
2022-11-09T14:52:29.249Z,14.65
2022-11-09T14:55:17.297Z,14.30
2022-11-09T14:58:03.429Z,14.35
2022-11-09T15:01:07.930Z,14.68
2022-11-09T15:04:15.025Z,14.52
2022-11-09T15:07:04.139Z,15.32
2022-11-09T15:09:59.306Z,14.57
2022-11-09T15:12:53.292Z,15.63
2022-11-09T15:18:33.407Z,16.92
2022-11-09T15:24:28.682Z,17.92
2022-11-09T15:27:35.665Z,19.88
2022-11-09T15:30:30.427Z,21.30
2022-11-09T16:48:35.452Z,20.13
2022-11-09T16:51:21.851Z,20.05
2022-11-09T16:54:08.240Z,19.83
2022-11-09T16:56:55.092Z,18.70
2022-11-09T16:59:42.127Z,20.23
2022-11-09T17:02:27.760Z,20.50
2022-11-09T17:05:14.207Z,20.13
2022-11-09T17:08:00.994Z,20.42
2022-11-09T17:10:47.435Z,22.02
2022-11-09T17:13:32.877Z,23.75
2022-11-09T17:16:20.720Z,23.05
2022-11-09T17:19:06.630Z,22.20
2022-11-09T17:21:52.698Z,22.40
2022-11-09T17:24:38.260Z,22.38
2022-11-09T17:27:24.031Z,21.52
2022-11-09T17:30:10.984Z,23.23
2022-11-09T17:32:57.222Z,22.67
2022-11-09T17:35:45.571Z,20.95
2022-11-09T17:38:32.798Z,21.23
2022-11-09T17:41:20.807Z,20.75
2022-11-09T17:44:06.374Z,21.73
2022-11-09T17:46:52.739Z,19.02
2022-11-09T17:49:38.930Z,19.60
2022-11-09T17:52:24.912Z,22.35
2022-11-09T17:55:10.368Z,22.13
2022-11-09T17:57:56.348Z,22.08
2022-11-09T18:00:45.644Z,22.35
2022-11-09T18:03:36.943Z,22.33
2022-11-09T18:06:24.903Z,22.33
2022-11-09T18:09:39.659Z,21.48
2022-11-09T18:12:17.621Z,21.63
2022-11-09T18:15:03.984Z,20.48
2022-11-09T18:17:49.555Z,21.45
2022-11-09T18:20:39.752Z,22.33
2022-11-09T18:23:25.960Z,21.73
2022-11-09T18:26:12.303Z,21.58
2022-11-09T18:28:58.784Z,20.80
2022-11-09T18:31:44.486Z,21.58
2022-11-09T18:34:30.440Z,21.70
2022-11-09T18:37:16.495Z,20.35
2022-11-09T18:40:02.326Z,19.63
2022-11-09T18:42:48.204Z,20.15
2022-11-09T18:45:35.371Z,18.92
2022-11-09T18:48:24.210Z,21.98
2022-11-09T18:51:11.422Z,20.25
2022-11-09T18:53:57.529Z,20.75
2022-11-09T18:56:43.329Z,20.25
2022-11-09T18:59:28.936Z,21.00
2022-11-09T19:02:14.943Z,21.42
2022-11-09T19:05:00.840Z,20.05
2022-11-09T19:07:46.782Z,20.85
2022-11-09T19:10:35.318Z,22.38
2022-11-09T19:13:21.257Z,21.02
2022-11-09T19:16:11.450Z,22.30
2022-11-09T19:18:58.047Z,21.88
2022-11-09T19:21:48.497Z,23.95
2022-11-09T19:24:34.303Z,17.05
2022-11-09T19:27:20.062Z,17.38
2022-11-09T19:30:09.636Z,14.35
2022-11-09T19:32:55.920Z,11.77
2022-11-09T19:35:42.093Z,11.85
2022-11-09T19:38:27.952Z,13.00
2022-11-09T19:41:13.677Z,10.57
2022-11-09T19:44:02.216Z,11.73
2022-11-09T19:46:48.573Z,11.15
2022-11-09T19:49:34.519Z,10.80
2022-11-09T19:52:20.471Z,11.20
2022-11-09T19:55:06.818Z,10.95
2022-11-09T19:57:55.305Z,11.52
2022-11-09T20:00:41.229Z,11.45
2022-11-09T20:03:27.167Z,13.65
2022-11-09T20:06:13.540Z,13.00
2022-11-09T20:09:04.417Z,12.90
2022-11-09T20:12:08.872Z,13.80
2022-11-09T20:14:54.653Z,13.07
2022-11-09T20:17:40.937Z,13.85
2022-11-09T20:20:26.797Z,14.85
2022-11-09T20:23:14.535Z,14.25
2022-11-09T20:26:06.993Z,14.68
2022-11-09T20:28:54.259Z,13.52
2022-11-09T20:31:40.681Z,14.35
2022-11-09T20:34:26.540Z,14.85
2022-11-09T20:37:11.845Z,13.95
2022-11-09T20:39:57.674Z,12.73
2022-11-09T20:42:44.242Z,13.50
2022-11-09T20:45:29.899Z,13.02
2022-11-09T20:48:38.645Z,12.77
2022-11-09T20:51:22.170Z,12.38
2022-11-09T20:54:08.067Z,13.02
2022-11-09T20:56:53.777Z,12.43
2022-11-09T20:59:39.587Z,12.25
2022-11-09T21:02:25.731Z,12.10
2022-11-09T21:05:11.402Z,12.45
2022-11-09T21:08:00.372Z,11.90
2022-11-09T21:10:46.068Z,12.27
2022-11-09T21:13:31.997Z,13.32
2022-11-09T21:16:19.524Z,13.50
2022-11-09T21:19:07.815Z,13.70
2022-11-09T21:21:53.152Z,12.07
2022-11-09T21:24:57.315Z,11.00
2022-11-09T21:28:01.299Z,11.48
2022-11-09T21:30:47.430Z,12.93
2022-11-09T21:33:33.140Z,11.48
2022-11-09T21:36:18.844Z,10.93
2022-11-09T21:39:04.552Z,9.70
2022-11-09T21:41:50.867Z,9.82
2022-11-09T21:44:36.670Z,10.52
2022-11-09T21:47:23.326Z,10.23
2022-11-09T21:50:12.524Z,10.50
2022-11-09T21:52:58.582Z,10.50
2022-11-09T21:55:44.063Z,10.05
2022-11-09T21:58:29.557Z,9.75
2022-11-09T22:01:18.142Z,11.13
2022-11-09T22:04:03.808Z,12.32
2022-11-09T22:06:49.398Z,11.68
2022-11-09T22:09:57.962Z,10.55
2022-11-09T22:12:58.917Z,10.52
2022-11-09T22:16:03.310Z,11.00
2022-11-09T22:19:07.414Z,11.93
2022-11-09T22:24:38.633Z,10.43
2022-11-09T22:27:24.554Z,10.38
2022-11-09T22:30:10.702Z,10.35
2022-11-09T22:32:58.242Z,10.90
2022-11-09T22:35:43.975Z,9.80
2022-11-09T22:38:31.238Z,9.50
2022-11-09T22:41:17.451Z,9.52
2022-11-09T22:44:02.934Z,9.90
2022-11-09T22:46:49.474Z,9.65
2022-11-09T22:49:37.031Z,9.93
2022-11-09T22:52:22.774Z,9.82
2022-11-09T22:55:08.628Z,9.75
2022-11-09T22:57:58.237Z,9.73
2022-11-09T23:00:43.700Z,10.85
2022-11-09T23:03:29.118Z,10.27
2022-11-09T23:06:17.538Z,10.82
2022-11-09T23:09:02.905Z,11.00
2022-11-09T23:11:48.305Z,11.20
2022-11-09T23:14:52.261Z,10.60
2022-11-09T23:17:56.335Z,10.73
2022-11-09T23:20:42.950Z,11.02
2022-11-09T23:23:28.798Z,11.63
2022-11-09T23:26:14.132Z,11.05
2022-11-09T23:29:00.215Z,11.43
2022-11-09T23:31:45.910Z,11.27
2022-11-09T23:34:31.197Z,10.95
2022-11-09T23:37:16.651Z,11.48
2022-11-09T23:40:01.899Z,11.73
2022-11-09T23:42:47.274Z,11.85
2022-11-09T23:45:37.457Z,11.23
2022-11-09T23:48:23.204Z,11.30
2022-11-09T23:51:09.507Z,11.15
2022-11-09T23:53:55.045Z,10.50
2022-11-09T23:56:40.507Z,11.50
2022-11-09T23:59:26.042Z,10.90
